sensor_id;sensor_type;location;lat;lon;timestamp;P1;durP1;ratioP1;P2;durP2;ratioP2
11514;SDS011;5814;41.936;25.556;2023-04-30T00:01:13;8.10;;;7.50;;
11514;SDS011;5814;41.936;25.556;2023-04-30T00:03:40;8.57;;;7.97;;
11514;SDS011;5814;41.936;25.556;2023-04-30T00:06:07;8.33;;;7.63;;
11514;SDS011;5814;41.936;25.556;2023-04-30T00:08:34;9.07;;;8.17;;
11514;SDS011;5814;41.936;25.556;2023-04-30T00:11:02;8.93;;;8.23;;
11514;SDS011;5814;41.936;25.556;2023-04-30T00:13:29;9.17;;;8.40;;
11514;SDS011;5814;41.936;25.556;2023-04-30T00:15:56;9.20;;;8.50;;
11514;SDS011;5814;41.936;25.556;2023-04-30T00:18:23;9.50;;;8.70;;
11514;SDS011;5814;41.936;25.556;2023-04-30T00:20:50;9.23;;;8.33;;
11514;SDS011;5814;41.936;25.556;2023-04-30T00:23:17;9.43;;;8.73;;
11514;SDS011;5814;41.936;25.556;2023-04-30T00:25:45;9.40;;;8.70;;
11514;SDS011;5814;41.936;25.556;2023-04-30T00:28:12;9.67;;;8.87;;
11514;SDS011;5814;41.936;25.556;2023-04-30T00:30:39;9.10;;;8.37;;
11514;SDS011;5814;41.936;25.556;2023-04-30T00:33:06;10.20;;;9.50;;
11514;SDS011;5814;41.936;25.556;2023-04-30T00:35:33;9.13;;;8.37;;
11514;SDS011;5814;41.936;25.556;2023-04-30T00:38:00;9.10;;;8.50;;
11514;SDS011;5814;41.936;25.556;2023-04-30T00:40:28;9.53;;;8.83;;
11514;SDS011;5814;41.936;25.556;2023-04-30T00:42:55;9.50;;;8.77;;
11514;SDS011;5814;41.936;25.556;2023-04-30T00:45:22;9.20;;;8.43;;
11514;SDS011;5814;41.936;25.556;2023-04-30T00:47:49;9.27;;;8.67;;
11514;SDS011;5814;41.936;25.556;2023-04-30T00:50:16;8.50;;;7.90;;
11514;SDS011;5814;41.936;25.556;2023-04-30T00:52:44;8.80;;;8.10;;
11514;SDS011;5814;41.936;25.556;2023-04-30T00:55:11;8.17;;;7.57;;
11514;SDS011;5814;41.936;25.556;2023-04-30T00:57:38;8.50;;;7.83;;
11514;SDS011;5814;41.936;25.556;2023-04-30T01:00:06;8.97;;;8.10;;
11514;SDS011;5814;41.936;25.556;2023-04-30T01:02:34;8.50;;;7.73;;
11514;SDS011;5814;41.936;25.556;2023-04-30T01:05:02;8.77;;;8.03;;
11514;SDS011;5814;41.936;25.556;2023-04-30T01:07:29;8.67;;;7.87;;
11514;SDS011;5814;41.936;25.556;2023-04-30T01:09:56;9.00;;;8.23;;
11514;SDS011;5814;41.936;25.556;2023-04-30T01:12:26;8.57;;;7.97;;
11514;SDS011;5814;41.936;25.556;2023-04-30T01:14:56;9.40;;;8.47;;
11514;SDS011;5814;41.936;25.556;2023-04-30T01:17:29;9.00;;;8.40;;
11514;SDS011;5814;41.936;25.556;2023-04-30T01:19:55;9.07;;;8.37;;
11514;SDS011;5814;41.936;25.556;2023-04-30T01:22:31;10.20;;;9.30;;
11514;SDS011;5814;41.936;25.556;2023-04-30T01:28:01;9.70;;;8.93;;
11514;SDS011;5814;41.936;25.556;2023-04-30T01:30:35;9.70;;;8.70;;
11514;SDS011;5814;41.936;25.556;2023-04-30T01:33:02;12.90;;;9.63;;
11514;SDS011;5814;41.936;25.556;2023-04-30T01:35:34;16.07;;;8.93;;
11514;SDS011;5814;41.936;25.556;2023-04-30T01:40:55;9.63;;;8.73;;
11514;SDS011;5814;41.936;25.556;2023-04-30T01:43:44;9.67;;;8.97;;
11514;SDS011;5814;41.936;25.556;2023-04-30T01:46:23;10.10;;;9.30;;
11514;SDS011;5814;41.936;25.556;2023-04-30T01:48:53;10.07;;;9.27;;
11514;SDS011;5814;41.936;25.556;2023-04-30T01:51:28;10.07;;;9.33;;
11514;SDS011;5814;41.936;25.556;2023-04-30T01:53:57;9.57;;;8.97;;
11514;SDS011;5814;41.936;25.556;2023-04-30T01:56:26;10.37;;;9.50;;
11514;SDS011;5814;41.936;25.556;2023-04-30T01:58:52;10.20;;;9.50;;
11514;SDS011;5814;41.936;25.556;2023-04-30T02:01:31;9.33;;;8.77;;
11514;SDS011;5814;41.936;25.556;2023-04-30T02:03:59;10.23;;;9.53;;
11514;SDS011;5814;41.936;25.556;2023-04-30T02:06:26;9.97;;;9.27;;
11514;SDS011;5814;41.936;25.556;2023-04-30T02:08:55;9.90;;;9.10;;
11514;SDS011;5814;41.936;25.556;2023-04-30T02:11:21;10.80;;;9.67;;
11514;SDS011;5814;41.936;25.556;2023-04-30T02:13:49;10.67;;;9.67;;
11514;SDS011;5814;41.936;25.556;2023-04-30T02:16:16;10.60;;;9.60;;
11514;SDS011;5814;41.936;25.556;2023-04-30T02:18:43;10.07;;;9.20;;
11514;SDS011;5814;41.936;25.556;2023-04-30T02:21:10;9.70;;;8.90;;
11514;SDS011;5814;41.936;25.556;2023-04-30T02:23:37;10.60;;;9.90;;
11514;SDS011;5814;41.936;25.556;2023-04-30T02:26:05;10.27;;;9.60;;
11514;SDS011;5814;41.936;25.556;2023-04-30T02:28:32;10.70;;;9.70;;
11514;SDS011;5814;41.936;25.556;2023-04-30T02:30:59;10.10;;;9.20;;
11514;SDS011;5814;41.936;25.556;2023-04-30T02:33:26;10.43;;;9.73;;
11514;SDS011;5814;41.936;25.556;2023-04-30T02:35:53;10.43;;;9.73;;
11514;SDS011;5814;41.936;25.556;2023-04-30T02:38:20;10.50;;;9.80;;
11514;SDS011;5814;41.936;25.556;2023-04-30T02:40:48;11.30;;;10.10;;
11514;SDS011;5814;41.936;25.556;2023-04-30T02:43:15;10.40;;;9.70;;
11514;SDS011;5814;41.936;25.556;2023-04-30T02:45:42;12.73;;;9.67;;
11514;SDS011;5814;41.936;25.556;2023-04-30T02:48:09;10.87;;;10.03;;
11514;SDS011;5814;41.936;25.556;2023-04-30T02:50:36;10.63;;;9.73;;
11514;SDS011;5814;41.936;25.556;2023-04-30T02:53:04;10.37;;;9.37;;
11514;SDS011;5814;41.936;25.556;2023-04-30T02:55:31;10.70;;;9.80;;
11514;SDS011;5814;41.936;25.556;2023-04-30T02:57:58;11.77;;;10.73;;
11514;SDS011;5814;41.936;25.556;2023-04-30T03:00:25;11.17;;;10.37;;
11514;SDS011;5814;41.936;25.556;2023-04-30T03:02:52;11.33;;;10.27;;
11514;SDS011;5814;41.936;25.556;2023-04-30T03:05:19;12.87;;;10.73;;
11514;SDS011;5814;41.936;25.556;2023-04-30T03:07:47;11.33;;;10.30;;
11514;SDS011;5814;41.936;25.556;2023-04-30T03:10:14;14.67;;;10.67;;
11514;SDS011;5814;41.936;25.556;2023-04-30T03:12:41;17.37;;;11.07;;
11514;SDS011;5814;41.936;25.556;2023-04-30T03:15:09;14.17;;;10.90;;
11514;SDS011;5814;41.936;25.556;2023-04-30T03:17:36;14.00;;;10.40;;
11514;SDS011;5814;41.936;25.556;2023-04-30T03:20:04;16.27;;;10.80;;
11514;SDS011;5814;41.936;25.556;2023-04-30T03:22:32;14.00;;;11.50;;
11514;SDS011;5814;41.936;25.556;2023-04-30T03:24:59;12.37;;;11.47;;
11514;SDS011;5814;41.936;25.556;2023-04-30T03:27:26;13.40;;;12.03;;
11514;SDS011;5814;41.936;25.556;2023-04-30T03:29:54;14.53;;;11.77;;
11514;SDS011;5814;41.936;25.556;2023-04-30T03:32:21;13.70;;;12.67;;
11514;SDS011;5814;41.936;25.556;2023-04-30T03:34:48;14.57;;;13.23;;
11514;SDS011;5814;41.936;25.556;2023-04-30T03:37:15;14.23;;;13.17;;
11514;SDS011;5814;41.936;25.556;2023-04-30T03:39:42;14.53;;;13.20;;
11514;SDS011;5814;41.936;25.556;2023-04-30T03:42:09;15.27;;;14.00;;
11514;SDS011;5814;41.936;25.556;2023-04-30T03:44:37;14.37;;;13.27;;
11514;SDS011;5814;41.936;25.556;2023-04-30T03:47:04;14.53;;;13.43;;
11514;SDS011;5814;41.936;25.556;2023-04-30T03:49:31;13.93;;;12.83;;
11514;SDS011;5814;41.936;25.556;2023-04-30T03:51:58;14.20;;;13.30;;
11514;SDS011;5814;41.936;25.556;2023-04-30T03:54:25;14.97;;;13.70;;
11514;SDS011;5814;41.936;25.556;2023-04-30T03:56:52;15.03;;;14.03;;
11514;SDS011;5814;41.936;25.556;2023-04-30T03:59:20;14.17;;;13.37;;
11514;SDS011;5814;41.936;25.556;2023-04-30T04:01:47;13.90;;;13.10;;
11514;SDS011;5814;41.936;25.556;2023-04-30T04:04:14;13.57;;;12.67;;
11514;SDS011;5814;41.936;25.556;2023-04-30T04:06:41;14.03;;;13.20;;
11514;SDS011;5814;41.936;25.556;2023-04-30T04:09:08;14.13;;;13.20;;
11514;SDS011;5814;41.936;25.556;2023-04-30T04:11:36;13.20;;;12.33;;
11514;SDS011;5814;41.936;25.556;2023-04-30T04:14:03;13.83;;;12.63;;
11514;SDS011;5814;41.936;25.556;2023-04-30T04:16:30;13.77;;;12.47;;
11514;SDS011;5814;41.936;25.556;2023-04-30T04:18:57;12.77;;;11.90;;
11514;SDS011;5814;41.936;25.556;2023-04-30T04:21:24;13.10;;;12.03;;
11514;SDS011;5814;41.936;25.556;2023-04-30T04:23:51;12.30;;;11.50;;
11514;SDS011;5814;41.936;25.556;2023-04-30T04:26:19;11.93;;;11.13;;
11514;SDS011;5814;41.936;25.556;2023-04-30T04:28:46;12.50;;;11.50;;
11514;SDS011;5814;41.936;25.556;2023-04-30T04:31:13;12.70;;;11.90;;
11514;SDS011;5814;41.936;25.556;2023-04-30T04:33:40;14.07;;;12.90;;
11514;SDS011;5814;41.936;25.556;2023-04-30T04:36:07;13.37;;;12.33;;
11514;SDS011;5814;41.936;25.556;2023-04-30T04:38:35;13.67;;;12.63;;
11514;SDS011;5814;41.936;25.556;2023-04-30T04:41:02;12.57;;;11.60;;
11514;SDS011;5814;41.936;25.556;2023-04-30T04:43:29;13.40;;;12.33;;
11514;SDS011;5814;41.936;25.556;2023-04-30T04:45:56;13.30;;;12.30;;
11514;SDS011;5814;41.936;25.556;2023-04-30T04:48:23;13.57;;;12.47;;
11514;SDS011;5814;41.936;25.556;2023-04-30T04:50:51;14.00;;;12.80;;
11514;SDS011;5814;41.936;25.556;2023-04-30T04:53:18;15.13;;;13.87;;
11514;SDS011;5814;41.936;25.556;2023-04-30T04:55:45;14.57;;;13.37;;
11514;SDS011;5814;41.936;25.556;2023-04-30T04:58:12;15.00;;;13.43;;
11514;SDS011;5814;41.936;25.556;2023-04-30T05:00:39;24.83;;;13.53;;
11514;SDS011;5814;41.936;25.556;2023-04-30T05:03:07;12.97;;;12.07;;
11514;SDS011;5814;41.936;25.556;2023-04-30T05:05:34;14.20;;;13.07;;
11514;SDS011;5814;41.936;25.556;2023-04-30T05:08:01;13.00;;;12.00;;
11514;SDS011;5814;41.936;25.556;2023-04-30T05:10:28;12.60;;;11.70;;
11514;SDS011;5814;41.936;25.556;2023-04-30T05:12:55;12.50;;;11.30;;
11514;SDS011;5814;41.936;25.556;2023-04-30T05:15:24;12.43;;;11.30;;
11514;SDS011;5814;41.936;25.556;2023-04-30T05:17:51;15.03;;;11.53;;
11514;SDS011;5814;41.936;25.556;2023-04-30T05:20:18;12.13;;;11.13;;
11514;SDS011;5814;41.936;25.556;2023-04-30T05:22:45;12.67;;;11.57;;
11514;SDS011;5814;41.936;25.556;2023-04-30T05:25:12;12.27;;;11.17;;
11514;SDS011;5814;41.936;25.556;2023-04-30T05:27:40;11.70;;;10.70;;
11514;SDS011;5814;41.936;25.556;2023-04-30T05:30:07;10.73;;;9.73;;
11514;SDS011;5814;41.936;25.556;2023-04-30T05:32:35;10.50;;;9.80;;
11514;SDS011;5814;41.936;25.556;2023-04-30T05:35:03;11.67;;;9.90;;
11514;SDS011;5814;41.936;25.556;2023-04-30T05:37:31;10.47;;;9.67;;
11514;SDS011;5814;41.936;25.556;2023-04-30T05:39:58;10.47;;;9.13;;
11514;SDS011;5814;41.936;25.556;2023-04-30T05:42:25;9.77;;;9.00;;
11514;SDS011;5814;41.936;25.556;2023-04-30T05:44:52;9.73;;;9.07;;
11514;SDS011;5814;41.936;25.556;2023-04-30T05:47:19;9.13;;;8.53;;
11514;SDS011;5814;41.936;25.556;2023-04-30T05:49:47;9.60;;;8.87;;
11514;SDS011;5814;41.936;25.556;2023-04-30T05:52:14;10.00;;;9.10;;
11514;SDS011;5814;41.936;25.556;2023-04-30T05:54:41;10.13;;;9.17;;
11514;SDS011;5814;41.936;25.556;2023-04-30T05:57:08;9.77;;;8.87;;
11514;SDS011;5814;41.936;25.556;2023-04-30T05:59:35;10.17;;;9.33;;
11514;SDS011;5814;41.936;25.556;2023-04-30T06:02:02;9.93;;;9.13;;
11514;SDS011;5814;41.936;25.556;2023-04-30T06:04:30;9.87;;;9.13;;
11514;SDS011;5814;41.936;25.556;2023-04-30T06:06:57;9.70;;;8.80;;
11514;SDS011;5814;41.936;25.556;2023-04-30T06:09:24;9.60;;;8.60;;
11514;SDS011;5814;41.936;25.556;2023-04-30T06:11:51;9.95;;;9.00;;
11514;SDS011;5814;41.936;25.556;2023-04-30T06:14:18;8.40;;;7.75;;
11514;SDS011;5814;41.936;25.556;2023-04-30T06:16:46;8.60;;;7.90;;
11514;SDS011;5814;41.936;25.556;2023-04-30T06:19:13;9.10;;;8.40;;
11514;SDS011;5814;41.936;25.556;2023-04-30T06:21:40;8.57;;;7.97;;
11514;SDS011;5814;41.936;25.556;2023-04-30T06:24:10;8.57;;;7.90;;
11514;SDS011;5814;41.936;25.556;2023-04-30T06:26:37;8.43;;;7.82;;
11514;SDS011;5814;41.936;25.556;2023-04-30T06:29:04;8.80;;;8.07;;
11514;SDS011;5814;41.936;25.556;2023-04-30T06:31:31;9.70;;;8.80;;
11514;SDS011;5814;41.936;25.556;2023-04-30T06:33:58;9.32;;;8.50;;
11514;SDS011;5814;41.936;25.556;2023-04-30T06:36:25;9.85;;;8.95;;
11514;SDS011;5814;41.936;25.556;2023-04-30T06:38:53;9.05;;;8.25;;
11514;SDS011;5814;41.936;25.556;2023-04-30T06:41:20;9.40;;;8.60;;
11514;SDS011;5814;41.936;25.556;2023-04-30T06:43:47;10.30;;;9.40;;
11514;SDS011;5814;41.936;25.556;2023-04-30T06:46:14;11.15;;;10.02;;
11514;SDS011;5814;41.936;25.556;2023-04-30T06:48:41;8.40;;;7.87;;
11514;SDS011;5814;41.936;25.556;2023-04-30T06:51:08;11.40;;;8.25;;
11514;SDS011;5814;41.936;25.556;2023-04-30T06:53:36;8.82;;;8.18;;
11514;SDS011;5814;41.936;25.556;2023-04-30T06:56:03;8.95;;;7.97;;
11514;SDS011;5814;41.936;25.556;2023-04-30T06:58:31;9.00;;;8.25;;
11514;SDS011;5814;41.936;25.556;2023-04-30T07:00:58;12.55;;;8.68;;
11514;SDS011;5814;41.936;25.556;2023-04-30T07:03:25;8.85;;;8.15;;
11514;SDS011;5814;41.936;25.556;2023-04-30T07:05:52;9.07;;;8.38;;
11514;SDS011;5814;41.936;25.556;2023-04-30T07:08:19;9.05;;;8.27;;
11514;SDS011;5814;41.936;25.556;2023-04-30T07:10:47;9.25;;;8.07;;
11514;SDS011;5814;41.936;25.556;2023-04-30T07:13:14;9.10;;;8.32;;
11514;SDS011;5814;41.936;25.556;2023-04-30T07:15:41;8.38;;;7.57;;
11514;SDS011;5814;41.936;25.556;2023-04-30T07:18:08;7.57;;;6.97;;
11514;SDS011;5814;41.936;25.556;2023-04-30T07:20:35;8.13;;;7.43;;
11514;SDS011;5814;41.936;25.556;2023-04-30T07:23:02;7.80;;;7.20;;
11514;SDS011;5814;41.936;25.556;2023-04-30T07:25:30;7.30;;;6.70;;
11514;SDS011;5814;41.936;25.556;2023-04-30T07:27:57;6.72;;;6.18;;
11514;SDS011;5814;41.936;25.556;2023-04-30T07:30:24;8.20;;;7.60;;
11514;SDS011;5814;41.936;25.556;2023-04-30T07:32:51;10.70;;;8.30;;
11514;SDS011;5814;41.936;25.556;2023-04-30T07:35:18;9.18;;;8.38;;
11514;SDS011;5814;41.936;25.556;2023-04-30T07:37:45;10.52;;;9.40;;
11514;SDS011;5814;41.936;25.556;2023-04-30T07:40:13;9.73;;;8.57;;
11514;SDS011;5814;41.936;25.556;2023-04-30T07:42:40;10.85;;;9.48;;
11514;SDS011;5814;41.936;25.556;2023-04-30T07:45:07;10.45;;;9.55;;
11514;SDS011;5814;41.936;25.556;2023-04-30T07:47:35;10.10;;;9.23;;
11514;SDS011;5814;41.936;25.556;2023-04-30T07:50:02;11.52;;;10.38;;
11514;SDS011;5814;41.936;25.556;2023-04-30T07:52:30;9.88;;;9.00;;
11514;SDS011;5814;41.936;25.556;2023-04-30T07:54:57;10.05;;;9.15;;
11514;SDS011;5814;41.936;25.556;2023-04-30T07:57:24;14.30;;;9.13;;
11514;SDS011;5814;41.936;25.556;2023-04-30T07:59:52;11.70;;;8.20;;
11514;SDS011;5814;41.936;25.556;2023-04-30T08:02:19;9.15;;;8.25;;
11514;SDS011;5814;41.936;25.556;2023-04-30T08:04:47;9.13;;;8.43;;
11514;SDS011;5814;41.936;25.556;2023-04-30T08:07:14;8.75;;;8.25;;
11514;SDS011;5814;41.936;25.556;2023-04-30T08:09:41;9.32;;;8.32;;
11514;SDS011;5814;41.936;25.556;2023-04-30T08:12:08;8.27;;;7.65;;
11514;SDS011;5814;41.936;25.556;2023-04-30T08:14:35;8.27;;;7.68;;
11514;SDS011;5814;41.936;25.556;2023-04-30T08:17:02;8.45;;;7.82;;
11514;SDS011;5814;41.936;25.556;2023-04-30T08:19:30;9.90;;;8.30;;
11514;SDS011;5814;41.936;25.556;2023-04-30T08:21:57;8.18;;;7.57;;
11514;SDS011;5814;41.936;25.556;2023-04-30T08:24:24;7.68;;;7.10;;
11514;SDS011;5814;41.936;25.556;2023-04-30T08:26:51;7.87;;;7.30;;
11514;SDS011;5814;41.936;25.556;2023-04-30T08:29:18;7.93;;;7.10;;
11514;SDS011;5814;41.936;25.556;2023-04-30T08:31:45;7.00;;;6.50;;
11514;SDS011;5814;41.936;25.556;2023-04-30T08:34:13;6.97;;;6.15;;
11514;SDS011;5814;41.936;25.556;2023-04-30T08:36:40;6.80;;;6.35;;
11514;SDS011;5814;41.936;25.556;2023-04-30T08:39:07;7.37;;;6.60;;
11514;SDS011;5814;41.936;25.556;2023-04-30T08:41:34;6.65;;;6.05;;
11514;SDS011;5814;41.936;25.556;2023-04-30T08:44:01;6.37;;;5.70;;
11514;SDS011;5814;41.936;25.556;2023-04-30T08:46:30;6.40;;;5.90;;
11514;SDS011;5814;41.936;25.556;2023-04-30T08:48:57;6.93;;;6.43;;
11514;SDS011;5814;41.936;25.556;2023-04-30T08:51:24;7.25;;;6.75;;
11514;SDS011;5814;41.936;25.556;2023-04-30T08:53:51;7.15;;;6.65;;
11514;SDS011;5814;41.936;25.556;2023-04-30T08:56:18;7.37;;;6.72;;
11514;SDS011;5814;41.936;25.556;2023-04-30T08:58:45;7.18;;;6.45;;
11514;SDS011;5814;41.936;25.556;2023-04-30T09:01:12;6.50;;;6.00;;
11514;SDS011;5814;41.936;25.556;2023-04-30T09:03:40;9.00;;;6.45;;
11514;SDS011;5814;41.936;25.556;2023-04-30T09:06:07;7.50;;;6.78;;
11514;SDS011;5814;41.936;25.556;2023-04-30T09:08:41;7.07;;;6.62;;
11514;SDS011;5814;41.936;25.556;2023-04-30T09:13:45;7.18;;;6.57;;
11514;SDS011;5814;41.936;25.556;2023-04-30T09:16:13;7.07;;;6.57;;
11514;SDS011;5814;41.936;25.556;2023-04-30T09:18:40;7.10;;;6.50;;
11514;SDS011;5814;41.936;25.556;2023-04-30T09:21:07;7.10;;;6.50;;
11514;SDS011;5814;41.936;25.556;2023-04-30T09:23:34;7.03;;;6.60;;
11514;SDS011;5814;41.936;25.556;2023-04-30T09:26:01;6.50;;;6.05;;
11514;SDS011;5814;41.936;25.556;2023-04-30T09:28:28;6.95;;;6.28;;
11514;SDS011;5814;41.936;25.556;2023-04-30T09:30:56;9.27;;;6.97;;
11514;SDS011;5814;41.936;25.556;2023-04-30T09:33:23;7.72;;;6.80;;
11514;SDS011;5814;41.936;25.556;2023-04-30T09:35:50;6.47;;;5.97;;
11514;SDS011;5814;41.936;25.556;2023-04-30T09:40:50;6.43;;;5.93;;
11514;SDS011;5814;41.936;25.556;2023-04-30T09:43:17;6.10;;;5.70;;
11514;SDS011;5814;41.936;25.556;2023-04-30T09:45:45;7.70;;;6.47;;
11514;SDS011;5814;41.936;25.556;2023-04-30T09:48:14;7.10;;;6.20;;
11514;SDS011;5814;41.936;25.556;2023-04-30T09:50:41;6.40;;;5.90;;
11514;SDS011;5814;41.936;25.556;2023-04-30T09:53:08;5.97;;;5.68;;
11514;SDS011;5814;41.936;25.556;2023-04-30T09:55:35;6.45;;;5.85;;
11514;SDS011;5814;41.936;25.556;2023-04-30T09:58:04;5.25;;;4.90;;
11514;SDS011;5814;41.936;25.556;2023-04-30T10:00:32;5.68;;;5.20;;
11514;SDS011;5814;41.936;25.556;2023-04-30T10:03:04;6.40;;;5.90;;
11514;SDS011;5814;41.936;25.556;2023-04-30T10:05:35;5.65;;;5.25;;
11514;SDS011;5814;41.936;25.556;2023-04-30T10:08:03;5.45;;;5.10;;
11514;SDS011;5814;41.936;25.556;2023-04-30T10:10:29;4.87;;;4.65;;
11514;SDS011;5814;41.936;25.556;2023-04-30T10:12:58;5.65;;;5.28;;
11514;SDS011;5814;41.936;25.556;2023-04-30T10:15:32;5.40;;;5.10;;
11514;SDS011;5814;41.936;25.556;2023-04-30T10:18:04;5.37;;;5.07;;
11514;SDS011;5814;41.936;25.556;2023-04-30T10:20:34;5.40;;;5.10;;
11514;SDS011;5814;41.936;25.556;2023-04-30T10:22:58;5.72;;;5.32;;
11514;SDS011;5814;41.936;25.556;2023-04-30T10:25:26;5.50;;;5.20;;
11514;SDS011;5814;41.936;25.556;2023-04-30T10:27:52;5.60;;;5.20;;
11514;SDS011;5814;41.936;25.556;2023-04-30T10:30:20;5.53;;;5.12;;
11514;SDS011;5814;41.936;25.556;2023-04-30T10:33:58;5.50;;;5.20;;
11514;SDS011;5814;41.936;25.556;2023-04-30T10:35:51;5.55;;;5.22;;
11514;SDS011;5814;41.936;25.556;2023-04-30T10:38:20;5.40;;;5.10;;
11514;SDS011;5814;41.936;25.556;2023-04-30T10:40:45;5.20;;;4.90;;
11514;SDS011;5814;41.936;25.556;2023-04-30T10:43:13;5.47;;;5.07;;
11514;SDS011;5814;41.936;25.556;2023-04-30T10:45:41;4.95;;;4.65;;
11514;SDS011;5814;41.936;25.556;2023-04-30T10:48:08;6.18;;;5.30;;
11514;SDS011;5814;41.936;25.556;2023-04-30T10:50:40;4.97;;;4.70;;
11514;SDS011;5814;41.936;25.556;2023-04-30T10:53:10;5.10;;;4.80;;
11514;SDS011;5814;41.936;25.556;2023-04-30T10:55:34;5.55;;;5.22;;
11514;SDS011;5814;41.936;25.556;2023-04-30T10:58:01;5.37;;;5.03;;
11514;SDS011;5814;41.936;25.556;2023-04-30T11:00:29;5.30;;;5.00;;
11514;SDS011;5814;41.936;25.556;2023-04-30T11:02:57;5.35;;;4.82;;
11514;SDS011;5814;41.936;25.556;2023-04-30T11:05:37;5.15;;;4.85;;
11514;SDS011;5814;41.936;25.556;2023-04-30T11:08:05;5.30;;;4.90;;
11514;SDS011;5814;41.936;25.556;2023-04-30T11:10:33;4.90;;;4.60;;
11514;SDS011;5814;41.936;25.556;2023-04-30T11:13:02;5.30;;;5.00;;
11514;SDS011;5814;41.936;25.556;2023-04-30T11:15:32;5.62;;;5.20;;
11514;SDS011;5814;41.936;25.556;2023-04-30T11:18:00;5.75;;;5.45;;
11514;SDS011;5814;41.936;25.556;2023-04-30T11:20:28;5.25;;;4.90;;
11514;SDS011;5814;41.936;25.556;2023-04-30T11:25:38;4.47;;;4.28;;
11514;SDS011;5814;41.936;25.556;2023-04-30T11:28:06;5.00;;;4.60;;
11514;SDS011;5814;41.936;25.556;2023-04-30T11:30:33;4.62;;;4.40;;
11514;SDS011;5814;41.936;25.556;2023-04-30T11:33:00;4.85;;;4.45;;
11514;SDS011;5814;41.936;25.556;2023-04-30T11:35:27;5.30;;;4.90;;
11514;SDS011;5814;41.936;25.556;2023-04-30T11:37:54;5.50;;;5.10;;
11514;SDS011;5814;41.936;25.556;2023-04-30T11:40:22;5.18;;;4.78;;
11514;SDS011;5814;41.936;25.556;2023-04-30T11:42:49;4.80;;;4.60;;
11514;SDS011;5814;41.936;25.556;2023-04-30T11:45:16;4.93;;;4.65;;
11514;SDS011;5814;41.936;25.556;2023-04-30T11:47:44;5.28;;;4.90;;
11514;SDS011;5814;41.936;25.556;2023-04-30T11:50:12;5.25;;;4.95;;
11514;SDS011;5814;41.936;25.556;2023-04-30T11:52:39;4.87;;;4.68;;
11514;SDS011;5814;41.936;25.556;2023-04-30T11:55:14;4.80;;;4.50;;
11514;SDS011;5814;41.936;25.556;2023-04-30T11:57:42;4.80;;;4.50;;
11514;SDS011;5814;41.936;25.556;2023-04-30T12:00:10;4.87;;;4.65;;
11514;SDS011;5814;41.936;25.556;2023-04-30T12:02:40;4.85;;;4.47;;
11514;SDS011;5814;41.936;25.556;2023-04-30T12:05:16;5.32;;;5.00;;
11514;SDS011;5814;41.936;25.556;2023-04-30T12:07:47;4.95;;;4.55;;
11514;SDS011;5814;41.936;25.556;2023-04-30T12:10:15;4.82;;;4.53;;
11514;SDS011;5814;41.936;25.556;2023-04-30T12:12:42;4.87;;;4.68;;
11514;SDS011;5814;41.936;25.556;2023-04-30T12:15:09;5.03;;;4.72;;
11514;SDS011;5814;41.936;25.556;2023-04-30T12:17:37;6.37;;;5.97;;
11514;SDS011;5814;41.936;25.556;2023-04-30T12:20:05;5.05;;;4.75;;
11514;SDS011;5814;41.936;25.556;2023-04-30T12:22:35;5.43;;;5.05;;
11514;SDS011;5814;41.936;25.556;2023-04-30T12:25:05;4.78;;;4.57;;
11514;SDS011;5814;41.936;25.556;2023-04-30T12:27:32;5.03;;;4.70;;
11514;SDS011;5814;41.936;25.556;2023-04-30T12:30:00;5.07;;;4.78;;
11514;SDS011;5814;41.936;25.556;2023-04-30T12:32:25;4.70;;;4.50;;
11514;SDS011;5814;41.936;25.556;2023-04-30T12:34:56;4.65;;;4.35;;
11514;SDS011;5814;41.936;25.556;2023-04-30T12:37:20;5.85;;;5.45;;
11514;SDS011;5814;41.936;25.556;2023-04-30T12:39:47;4.95;;;4.65;;
11514;SDS011;5814;41.936;25.556;2023-04-30T12:42:17;5.18;;;4.95;;
11514;SDS011;5814;41.936;25.556;2023-04-30T12:44:42;4.80;;;4.50;;
11514;SDS011;5814;41.936;25.556;2023-04-30T12:47:09;5.40;;;4.87;;
11514;SDS011;5814;41.936;25.556;2023-04-30T12:49:36;5.00;;;4.70;;
11514;SDS011;5814;41.936;25.556;2023-04-30T12:52:04;5.10;;;4.60;;
11514;SDS011;5814;41.936;25.556;2023-04-30T12:54:35;5.00;;;4.60;;
11514;SDS011;5814;41.936;25.556;2023-04-30T12:57:02;5.55;;;5.12;;
11514;SDS011;5814;41.936;25.556;2023-04-30T12:59:30;5.25;;;4.90;;
11514;SDS011;5814;41.936;25.556;2023-04-30T13:04:32;4.90;;;4.70;;
11514;SDS011;5814;41.936;25.556;2023-04-30T13:06:59;5.07;;;4.78;;
11514;SDS011;5814;41.936;25.556;2023-04-30T13:09:26;4.85;;;4.65;;
11514;SDS011;5814;41.936;25.556;2023-04-30T13:11:53;5.40;;;5.10;;
11514;SDS011;5814;41.936;25.556;2023-04-30T13:14:20;5.30;;;5.03;;
11514;SDS011;5814;41.936;25.556;2023-04-30T13:16:47;4.80;;;4.60;;
11514;SDS011;5814;41.936;25.556;2023-04-30T13:19:15;5.20;;;4.90;;
11514;SDS011;5814;41.936;25.556;2023-04-30T13:21:42;5.28;;;4.97;;
11514;SDS011;5814;41.936;25.556;2023-04-30T13:24:09;5.40;;;5.10;;
11514;SDS011;5814;41.936;25.556;2023-04-30T13:26:36;5.78;;;5.45;;
11514;SDS011;5814;41.936;25.556;2023-04-30T13:29:03;5.82;;;5.30;;
11514;SDS011;5814;41.936;25.556;2023-04-30T13:31:30;6.62;;;5.00;;
11514;SDS011;5814;41.936;25.556;2023-04-30T13:33:58;5.70;;;5.40;;
11514;SDS011;5814;41.936;25.556;2023-04-30T13:36:25;5.50;;;5.10;;
11514;SDS011;5814;41.936;25.556;2023-04-30T13:38:52;5.62;;;5.32;;
11514;SDS011;5814;41.936;25.556;2023-04-30T13:41:19;5.60;;;5.30;;
11514;SDS011;5814;41.936;25.556;2023-04-30T13:43:47;5.72;;;5.32;;
11514;SDS011;5814;41.936;25.556;2023-04-30T13:46:14;5.45;;;5.15;;
11514;SDS011;5814;41.936;25.556;2023-04-30T13:48:41;5.90;;;5.50;;
11514;SDS011;5814;41.936;25.556;2023-04-30T13:51:08;5.40;;;5.10;;
11514;SDS011;5814;41.936;25.556;2023-04-30T13:53:35;5.95;;;5.30;;
11514;SDS011;5814;41.936;25.556;2023-04-30T13:56:02;5.60;;;5.30;;
11514;SDS011;5814;41.936;25.556;2023-04-30T13:58:30;5.70;;;5.20;;
11514;SDS011;5814;41.936;25.556;2023-04-30T14:00:57;5.28;;;4.80;;
11514;SDS011;5814;41.936;25.556;2023-04-30T14:03:25;5.40;;;5.10;;
11514;SDS011;5814;41.936;25.556;2023-04-30T14:05:53;4.87;;;4.68;;
11514;SDS011;5814;41.936;25.556;2023-04-30T14:08:19;5.20;;;5.00;;
11514;SDS011;5814;41.936;25.556;2023-04-30T14:10:46;5.10;;;4.90;;
11514;SDS011;5814;41.936;25.556;2023-04-30T14:13:13;4.80;;;4.60;;
11514;SDS011;5814;41.936;25.556;2023-04-30T14:15:40;5.30;;;5.07;;
11514;SDS011;5814;41.936;25.556;2023-04-30T14:18:08;5.03;;;4.72;;
11514;SDS011;5814;41.936;25.556;2023-04-30T14:20:35;5.12;;;4.82;;
11514;SDS011;5814;41.936;25.556;2023-04-30T14:23:02;5.70;;;5.30;;
11514;SDS011;5814;41.936;25.556;2023-04-30T14:25:29;5.25;;;5.03;;
11514;SDS011;5814;41.936;25.556;2023-04-30T14:27:56;5.20;;;4.90;;
11514;SDS011;5814;41.936;25.556;2023-04-30T14:30:23;5.10;;;4.80;;
11514;SDS011;5814;41.936;25.556;2023-04-30T14:32:51;5.55;;;5.20;;
11514;SDS011;5814;41.936;25.556;2023-04-30T14:35:18;5.32;;;5.10;;
11514;SDS011;5814;41.936;25.556;2023-04-30T14:37:45;4.93;;;4.72;;
11514;SDS011;5814;41.936;25.556;2023-04-30T14:40:12;5.22;;;4.80;;
11514;SDS011;5814;41.936;25.556;2023-04-30T14:42:40;5.55;;;5.10;;
11514;SDS011;5814;41.936;25.556;2023-04-30T14:45:08;5.32;;;5.03;;
11514;SDS011;5814;41.936;25.556;2023-04-30T14:47:36;5.18;;;4.87;;
11514;SDS011;5814;41.936;25.556;2023-04-30T14:50:03;5.10;;;4.80;;
11514;SDS011;5814;41.936;25.556;2023-04-30T14:52:31;5.35;;;5.05;;
11514;SDS011;5814;41.936;25.556;2023-04-30T14:54:58;5.30;;;5.00;;
11514;SDS011;5814;41.936;25.556;2023-04-30T14:57:25;5.07;;;4.78;;
11514;SDS011;5814;41.936;25.556;2023-04-30T14:59:53;5.18;;;4.85;;